createdAt,value
2022-09-22T00:00:55.879Z,8.81
2022-09-22T00:03:23.374Z,8.89
2022-09-22T00:05:50.793Z,8.76
2022-09-22T00:08:18.180Z,8.72
2022-09-22T00:10:45.567Z,8.79
2022-09-22T00:13:14.341Z,8.85
2022-09-22T00:15:46.047Z,8.88
2022-09-22T00:18:13.437Z,8.87
2022-09-22T00:20:40.825Z,8.87
2022-09-22T00:23:08.227Z,8.86
2022-09-22T00:25:35.592Z,8.81
2022-09-22T00:28:03.997Z,8.79
2022-09-22T00:30:32.732Z,8.78
2022-09-22T00:33:00.103Z,8.75
2022-09-22T00:35:27.530Z,8.73
2022-09-22T00:37:54.948Z,8.65
2022-09-22T00:40:23.003Z,8.52
2022-09-22T00:42:50.558Z,8.41
2022-09-22T00:45:18.063Z,8.30
2022-09-22T00:47:48.054Z,8.39
2022-09-22T00:50:17.790Z,8.43
2022-09-22T00:52:48.355Z,8.47
2022-09-22T00:55:18.596Z,8.47
2022-09-22T00:57:47.269Z,8.47
2022-09-22T01:00:15.068Z,8.48
2022-09-22T01:02:42.901Z,8.44
2022-09-22T01:05:11.988Z,8.45
2022-09-22T01:07:39.417Z,8.47
2022-09-22T01:10:07.586Z,8.44
2022-09-22T01:12:36.671Z,8.44
2022-09-22T01:15:13.753Z,8.42
2022-09-22T01:17:46.913Z,8.37
2022-09-22T01:20:28.579Z,8.37
2022-09-22T01:23:14.154Z,8.35
2022-09-22T01:25:59.433Z,8.33
2022-09-22T01:28:44.425Z,8.30
2022-09-22T01:31:15.576Z,8.30
2022-09-22T01:33:45.366Z,8.24
2022-09-22T01:36:18.556Z,8.22
2022-09-22T01:38:49.125Z,8.10
2022-09-22T01:41:18.870Z,8.05
2022-09-22T01:43:50.366Z,8.02
2022-09-22T01:46:22.378Z,8.05
2022-09-22T01:48:51.260Z,8.04
2022-09-22T01:51:20.957Z,8.10
2022-09-22T01:53:51.540Z,8.11
2022-09-22T01:56:20.817Z,8.08
2022-09-22T01:58:50.171Z,8.09
2022-09-22T02:01:20.219Z,8.09
2022-09-22T02:03:50.097Z,8.09
2022-09-22T02:06:20.235Z,8.07
2022-09-22T02:08:51.484Z,8.07
2022-09-22T02:11:18.976Z,8.03
2022-09-22T02:13:47.488Z,8.01
2022-09-22T02:16:16.443Z,7.99
2022-09-22T02:18:49.144Z,7.97
2022-09-22T02:21:16.927Z,7.95
2022-09-22T02:23:45.260Z,7.91
2022-09-22T02:26:13.915Z,7.91
2022-09-22T02:28:42.154Z,7.88
2022-09-22T02:31:20.104Z,7.87
2022-09-22T02:33:50.702Z,7.85
2022-09-22T02:36:39.835Z,7.83
2022-09-22T02:39:09.988Z,7.81
2022-09-22T02:41:54.534Z,7.77
2022-09-22T02:44:24.793Z,7.77
2022-09-22T02:46:56.951Z,7.76
2022-09-22T02:49:26.555Z,7.75
2022-09-22T02:51:54.066Z,7.71
2022-09-22T02:54:21.829Z,7.71
2022-09-22T02:56:49.220Z,7.71
2022-09-22T02:59:16.638Z,7.68
2022-09-22T03:01:44.059Z,7.67
2022-09-22T03:04:11.540Z,7.64
2022-09-22T03:06:40.433Z,7.62
2022-09-22T03:09:07.945Z,7.59
2022-09-22T03:11:35.361Z,7.59
2022-09-22T03:14:02.819Z,7.58
2022-09-22T03:16:30.197Z,7.56
2022-09-22T03:18:58.402Z,7.54
2022-09-22T03:21:25.838Z,7.54
2022-09-22T03:23:54.549Z,7.51
2022-09-22T03:26:21.908Z,7.46
2022-09-22T03:28:49.300Z,7.43
2022-09-22T03:31:16.819Z,7.43
2022-09-22T03:33:44.294Z,7.44
2022-09-22T03:36:13.744Z,7.43
2022-09-22T03:38:41.205Z,7.43
2022-09-22T03:41:09.925Z,7.40
2022-09-22T03:43:37.327Z,7.38
2022-09-22T03:46:04.758Z,7.35
2022-09-22T03:48:32.291Z,7.34
2022-09-22T03:50:59.676Z,7.32
2022-09-22T03:53:27.370Z,7.30
2022-09-22T03:56:04.884Z,7.29
2022-09-22T03:58:33.890Z,7.30
2022-09-22T04:01:01.423Z,7.27
2022-09-22T04:03:29.082Z,7.27
2022-09-22T04:05:56.637Z,7.27
2022-09-22T04:08:24.283Z,7.27
2022-09-22T04:10:51.707Z,7.13
2022-09-22T04:13:20.418Z,7.11
2022-09-22T04:15:49.141Z,7.17
2022-09-22T04:18:16.527Z,7.17
2022-09-22T04:20:45.197Z,7.20
2022-09-22T04:23:12.868Z,7.17
2022-09-22T04:25:40.358Z,7.18
2022-09-22T04:28:07.848Z,7.15
2022-09-22T04:30:36.790Z,7.14
2022-09-22T04:33:05.647Z,7.15
2022-09-22T04:35:33.251Z,7.14
2022-09-22T04:38:00.704Z,7.14
2022-09-22T04:40:28.229Z,7.08
2022-09-22T04:42:55.654Z,7.13
2022-09-22T04:45:23.258Z,7.13
2022-09-22T04:47:51.458Z,7.09
2022-09-22T04:50:20.943Z,7.06
2022-09-22T04:52:50.003Z,7.04
2022-09-22T04:55:17.907Z,7.02
2022-09-22T04:57:48.460Z,7.00
2022-09-22T05:00:16.782Z,6.96
2022-09-22T05:02:44.211Z,6.94
2022-09-22T05:05:11.702Z,6.91
2022-09-22T05:07:42.577Z,6.52
2022-09-22T05:10:11.138Z,6.94
2022-09-22T05:12:40.115Z,6.94
2022-09-22T05:15:08.023Z,6.95
2022-09-22T05:17:36.147Z,6.95
2022-09-22T05:20:04.032Z,6.95
2022-09-22T05:22:35.207Z,6.93
2022-09-22T05:25:07.291Z,6.92
2022-09-22T05:27:34.708Z,6.90
2022-09-22T05:30:02.438Z,6.87
2022-09-22T05:32:29.877Z,6.88
2022-09-22T05:34:57.287Z,6.88
2022-09-22T05:37:24.691Z,6.90
2022-09-22T05:39:52.054Z,6.90
2022-09-22T05:42:21.159Z,6.90
2022-09-22T05:44:48.750Z,6.93
2022-09-22T05:47:16.141Z,6.94
2022-09-22T05:49:43.553Z,6.90
2022-09-22T05:52:10.956Z,6.88
2022-09-22T05:54:38.428Z,6.87
2022-09-22T05:57:05.881Z,6.96
2022-09-22T05:59:34.675Z,6.97
2022-09-22T06:02:09.427Z,6.99
2022-09-22T06:04:50.200Z,7.04
2022-09-22T06:07:20.131Z,7.07
2022-09-22T06:09:47.542Z,7.12
2022-09-22T06:12:15.011Z,7.19
2022-09-22T06:14:43.811Z,7.24
2022-09-22T06:17:11.789Z,7.27
2022-09-22T06:19:39.577Z,7.38
2022-09-22T06:22:08.090Z,7.43
2022-09-22T06:24:35.434Z,7.57
2022-09-22T06:27:02.941Z,7.81
2022-09-22T06:29:30.537Z,8.24
2022-09-22T06:31:59.252Z,8.40
2022-09-22T06:34:27.120Z,8.28
2022-09-22T06:36:56.181Z,8.24
2022-09-22T06:39:23.882Z,8.26
2022-09-22T06:41:51.288Z,8.41
2022-09-22T06:44:18.657Z,8.74
2022-09-22T06:46:46.049Z,9.02
2022-09-22T06:49:14.772Z,8.96
2022-09-22T06:51:42.151Z,8.92
2022-09-22T06:54:09.626Z,8.89
2022-09-22T06:56:39.778Z,8.90
2022-09-22T06:59:10.925Z,8.96
2022-09-22T07:01:39.183Z,8.63
2022-09-22T07:04:06.742Z,9.20
2022-09-22T07:06:37.111Z,9.39
2022-09-22T07:09:05.436Z,9.62
2022-09-22T07:11:36.359Z,9.91
2022-09-22T07:14:07.330Z,9.95
2022-09-22T07:16:35.188Z,9.93
2022-09-22T07:19:02.620Z,10.07
2022-09-22T07:21:32.865Z,10.55
2022-09-22T07:24:01.702Z,10.86
2022-09-22T07:26:30.766Z,11.17
2022-09-22T07:28:59.235Z,11.32
2022-09-22T07:31:29.035Z,11.45
2022-09-22T07:34:00.110Z,11.40
2022-09-22T07:36:28.590Z,11.22
2022-09-22T07:38:57.354Z,10.83
2022-09-22T07:41:27.431Z,10.67
2022-09-22T07:43:56.110Z,10.73
2022-09-22T07:46:23.753Z,10.72
2022-09-22T07:48:51.224Z,10.61
2022-09-22T07:51:21.497Z,10.68
2022-09-22T07:53:49.690Z,10.78
2022-09-22T07:56:17.981Z,10.69
2022-09-22T07:58:50.521Z,10.70
2022-09-22T08:01:18.452Z,10.94
2022-09-22T08:03:47.217Z,11.06
2022-09-22T08:06:16.130Z,11.14
2022-09-22T08:08:44.612Z,11.20
2022-09-22T08:11:14.812Z,11.30
2022-09-22T08:13:42.522Z,11.40
2022-09-22T08:16:11.818Z,11.47
2022-09-22T08:18:40.701Z,11.61
2022-09-22T08:21:08.540Z,11.60
2022-09-22T08:23:37.427Z,11.74
2022-09-22T08:26:05.569Z,11.81
2022-09-22T08:28:33.230Z,11.90
2022-09-22T08:31:00.853Z,12.06
2022-09-22T08:33:30.890Z,12.13
2022-09-22T08:35:59.012Z,12.21
2022-09-22T08:38:28.209Z,12.34
2022-09-22T08:41:12.421Z,12.36
2022-09-22T08:43:44.737Z,12.54
2022-09-22T08:46:12.728Z,12.63
2022-09-22T08:49:00.877Z,12.76
2022-09-22T08:51:50.800Z,13.03
2022-09-22T08:54:18.471Z,13.47
2022-09-22T08:56:48.274Z,13.72
2022-09-22T08:59:18.734Z,13.95
2022-09-22T09:01:53.681Z,14.33
2022-09-22T09:04:42.394Z,14.30
2022-09-22T09:07:15.140Z,14.19
2022-09-22T09:09:48.548Z,14.15
2022-09-22T09:12:25.341Z,14.19
2022-09-22T09:15:01.406Z,14.18
2022-09-22T09:17:31.154Z,14.13
2022-09-22T09:20:02.572Z,14.27
2022-09-22T09:22:32.678Z,14.39
2022-09-22T09:27:52.260Z,14.44
2022-09-22T09:30:20.608Z,14.63
2022-09-22T09:32:50.019Z,14.55
2022-09-22T09:35:20.716Z,14.74
2022-09-22T09:37:49.137Z,14.76
2022-09-22T09:40:18.305Z,14.97
2022-09-22T09:42:47.624Z,15.05
2022-09-22T09:45:15.501Z,15.26
2022-09-22T09:47:47.896Z,15.28
2022-09-22T09:50:16.121Z,15.35
2022-09-22T09:52:45.895Z,15.22
2022-09-22T09:55:19.868Z,15.38
2022-09-22T09:58:02.116Z,15.43
2022-09-22T10:00:31.701Z,15.59
2022-09-22T10:03:06.521Z,15.56
2022-09-22T10:05:37.491Z,15.65
2022-09-22T10:08:15.147Z,15.73
2022-09-22T10:10:42.885Z,16.18
2022-09-22T10:13:20.825Z,16.32
2022-09-22T10:16:01.130Z,16.98
2022-09-22T10:18:33.436Z,16.80
2022-09-22T10:21:02.923Z,17.01
2022-09-22T10:23:32.870Z,17.42
2022-09-22T10:26:14.825Z,17.23
2022-09-22T10:28:42.375Z,16.94
2022-09-22T10:31:19.750Z,17.05
2022-09-22T10:33:54.473Z,17.63
2022-09-22T10:36:25.787Z,18.29
2022-09-22T10:38:58.883Z,17.75
2022-09-22T10:41:33.979Z,17.43
2022-09-22T10:44:20.875Z,17.95
2022-09-22T10:47:00.639Z,18.15
2022-09-22T10:49:37.843Z,18.59
2022-09-22T10:52:09.940Z,18.97
2022-09-22T10:54:54.265Z,18.18
2022-09-22T10:57:27.007Z,18.79
2022-09-22T11:00:09.127Z,18.92
2022-09-22T11:02:55.158Z,18.65
2022-09-22T11:05:42.496Z,18.80
2022-09-22T11:08:29.993Z,19.07
2022-09-22T11:11:21.487Z,18.19
2022-09-22T11:13:57.458Z,18.51
2022-09-22T11:16:33.835Z,18.52
2022-09-22T11:19:07.638Z,18.18
2022-09-22T11:21:40.443Z,18.70
2022-09-22T11:24:14.758Z,18.72
2022-09-22T11:26:47.497Z,18.32
2022-09-22T11:29:24.168Z,18.67
2022-09-22T11:31:58.899Z,19.54
2022-09-22T11:34:34.290Z,18.95
2022-09-22T11:37:24.918Z,18.72
2022-09-22T11:39:56.571Z,19.63
2022-09-22T11:42:29.367Z,19.53
2022-09-22T11:45:04.600Z,19.85
2022-09-22T11:47:41.431Z,21.23
2022-09-22T11:50:21.376Z,21.14
2022-09-22T11:52:58.796Z,21.21
2022-09-22T11:55:31.478Z,20.25
2022-09-22T11:58:02.054Z,20.33
2022-09-22T12:00:34.978Z,20.38
2022-09-22T12:03:05.814Z,20.47
2022-09-22T12:05:38.972Z,20.66
2022-09-22T12:08:09.733Z,20.74
2022-09-22T12:10:40.762Z,20.06
2022-09-22T12:13:12.856Z,20.50
2022-09-22T12:15:46.654Z,21.14
2022-09-22T12:18:15.836Z,22.62
2022-09-22T12:20:50.537Z,22.43
2022-09-22T12:23:20.808Z,20.22
2022-09-22T12:25:51.474Z,20.06
2022-09-22T12:28:22.762Z,20.56
2022-09-22T12:30:59.763Z,20.29
2022-09-22T12:33:28.261Z,20.53
2022-09-22T12:35:56.940Z,21.31
2022-09-22T12:38:25.077Z,21.98
2022-09-22T12:40:53.940Z,23.07
2022-09-22T12:43:24.193Z,21.47
2022-09-22T12:45:52.724Z,20.79
2022-09-22T12:48:23.141Z,21.38
2022-09-22T12:50:51.011Z,22.82
2022-09-22T12:53:25.604Z,22.73
2022-09-22T12:55:53.086Z,24.87
2022-09-22T12:58:41.488Z,23.27
2022-09-22T13:01:27.743Z,22.05
2022-09-22T13:04:05.415Z,21.91
2022-09-22T13:06:51.639Z,22.85
2022-09-22T13:09:21.325Z,23.33
2022-09-22T13:12:07.520Z,22.86
2022-09-22T13:14:53.838Z,21.26
2022-09-22T13:17:39.470Z,21.40
2022-09-22T13:20:24.990Z,23.06
2022-09-22T13:22:55.274Z,23.83
2022-09-22T13:25:24.287Z,23.77
2022-09-22T13:28:04.938Z,23.50
2022-09-22T13:30:33.036Z,24.18
2022-09-22T13:33:01.855Z,25.18
2022-09-22T13:35:30.966Z,24.09
2022-09-22T13:37:58.882Z,22.24
2022-09-22T13:40:27.521Z,24.68
2022-09-22T13:42:56.130Z,24.08
2022-09-22T13:45:26.564Z,23.98
2022-09-22T13:47:55.410Z,24.48
2022-09-22T13:50:25.107Z,25.64
2022-09-22T13:52:52.899Z,24.48
2022-09-22T13:55:24.793Z,24.18
2022-09-22T13:57:52.733Z,24.88
2022-09-22T14:00:24.376Z,25.69
2022-09-22T14:02:52.036Z,23.85
2022-09-22T14:05:21.588Z,24.30
2022-09-22T14:08:10.506Z,24.33
2022-09-22T14:10:39.030Z,25.08
2022-09-22T14:13:06.437Z,23.78
2022-09-22T14:15:43.349Z,24.87
2022-09-22T14:18:15.609Z,23.23
2022-09-22T14:20:45.153Z,24.42
2022-09-22T14:23:27.046Z,23.51
2022-09-22T14:25:54.696Z,24.41
2022-09-22T14:28:24.060Z,24.97
2022-09-22T14:30:51.953Z,23.16
2022-09-22T14:33:22.400Z,23.89
2022-09-22T14:35:52.085Z,24.56
2022-09-22T14:38:23.971Z,23.99
2022-09-22T14:40:51.856Z,23.89
2022-09-22T14:43:23.988Z,22.71
2022-09-22T14:45:58.449Z,23.28
2022-09-22T14:48:30.130Z,23.07
2022-09-22T14:50:58.958Z,23.79
2022-09-22T14:53:30.483Z,25.37
2022-09-22T14:56:04.011Z,25.43
2022-09-22T14:58:36.232Z,24.25
2022-09-22T15:01:30.979Z,23.30
2022-09-22T15:04:00.738Z,22.56
2022-09-22T15:06:37.630Z,21.51
2022-09-22T15:09:07.398Z,22.07
2022-09-22T15:11:49.366Z,21.10
2022-09-22T15:14:41.908Z,21.19
2022-09-22T15:17:45.530Z,21.17
2022-09-22T15:20:14.104Z,21.37
2022-09-22T15:22:41.743Z,21.10
2022-09-22T15:25:14.550Z,20.75
2022-09-22T15:27:41.950Z,20.20
2022-09-22T15:30:13.066Z,20.33
2022-09-22T15:32:44.678Z,21.19
2022-09-22T15:35:13.015Z,21.03
2022-09-22T15:37:42.137Z,20.05
2022-09-22T15:40:21.256Z,19.80
2022-09-22T15:43:09.066Z,19.72
2022-09-22T15:45:38.013Z,19.85
2022-09-22T15:48:05.595Z,19.66
2022-09-22T15:50:33.502Z,19.86
2022-09-22T15:53:00.889Z,19.78
2022-09-22T15:55:29.652Z,19.52
2022-09-22T15:58:00.311Z,20.29
2022-09-22T16:00:27.716Z,20.20
2022-09-22T16:02:55.181Z,19.94
2022-09-22T16:05:22.778Z,20.00
2022-09-22T16:07:51.151Z,20.24
2022-09-22T16:10:20.794Z,19.39
2022-09-22T16:12:50.613Z,19.18
2022-09-22T16:15:18.267Z,19.18
2022-09-22T16:17:46.426Z,19.02
2022-09-22T16:20:14.956Z,18.93
2022-09-22T16:22:42.403Z,19.23
2022-09-22T16:25:11.200Z,18.46
2022-09-22T16:27:38.885Z,18.37
2022-09-22T16:30:08.744Z,18.15
2022-09-22T16:32:36.138Z,18.35
2022-09-22T16:35:03.990Z,18.18
2022-09-22T16:37:31.417Z,18.04
2022-09-22T16:39:58.814Z,17.60
2022-09-22T16:42:26.284Z,17.49
2022-09-22T16:44:53.699Z,17.84
2022-09-22T16:47:22.851Z,17.83
2022-09-22T16:49:51.453Z,17.89
2022-09-22T16:52:19.921Z,17.66
2022-09-22T16:54:47.549Z,17.76
2022-09-22T16:57:15.227Z,17.74
2022-09-22T16:59:42.757Z,17.70
2022-09-22T17:02:10.900Z,17.58
2022-09-22T17:04:39.809Z,17.38
2022-09-22T17:07:07.202Z,17.32
2022-09-22T17:09:34.564Z,17.27
2022-09-22T17:12:03.269Z,17.15
2022-09-22T17:14:32.396Z,17.06
2022-09-22T17:17:06.425Z,16.97
2022-09-22T17:19:34.359Z,16.84
2022-09-22T17:22:04.786Z,16.72
2022-09-22T17:24:32.220Z,16.61
2022-09-22T17:26:59.964Z,16.55
2022-09-22T17:29:28.220Z,16.34
2022-09-22T17:31:57.549Z,16.30
2022-09-22T17:34:25.270Z,16.23
2022-09-22T17:36:55.436Z,16.20
2022-09-22T17:39:24.461Z,16.09
2022-09-22T17:41:51.880Z,16.00
2022-09-22T17:44:21.336Z,15.93
2022-09-22T17:47:06.704Z,15.81
2022-09-22T17:49:51.511Z,15.72
2022-09-22T17:52:36.188Z,15.65
2022-09-22T17:55:11.643Z,15.55
2022-09-22T17:57:39.789Z,15.43
2022-09-22T18:00:08.557Z,15.33
2022-09-22T18:02:38.134Z,14.79
2022-09-22T18:05:06.343Z,15.19
2022-09-22T18:07:35.092Z,15.14
2022-09-22T18:10:03.034Z,15.09
2022-09-22T18:12:34.304Z,15.07
2022-09-22T18:15:03.893Z,14.98
2022-09-22T18:17:32.226Z,14.93
2022-09-22T18:20:00.428Z,14.91
2022-09-22T18:22:29.727Z,14.83
2022-09-22T18:24:57.137Z,14.76
2022-09-22T18:27:26.941Z,14.68
2022-09-22T18:29:58.591Z,14.62
2022-09-22T18:32:26.841Z,14.62
2022-09-22T18:34:54.336Z,14.57
2022-09-22T18:37:22.300Z,14.54
2022-09-22T18:39:50.387Z,14.43
2022-09-22T18:42:18.914Z,14.38
2022-09-22T18:44:47.039Z,14.33
2022-09-22T18:47:18.382Z,14.27
2022-09-22T18:49:48.065Z,14.23
2022-09-22T18:52:16.488Z,14.18
2022-09-22T18:54:43.940Z,14.16
2022-09-22T18:57:12.233Z,14.15
2022-09-22T18:59:39.916Z,14.12
2022-09-22T19:02:11.375Z,14.09
2022-09-22T19:04:41.548Z,14.07
2022-09-22T19:07:27.660Z,14.05
2022-09-22T19:09:55.152Z,13.98
2022-09-22T19:12:22.577Z,13.95
2022-09-22T19:14:57.096Z,13.91
2022-09-22T19:17:26.115Z,13.89
2022-09-22T19:19:56.520Z,13.87
2022-09-22T19:22:24.312Z,13.87
2022-09-22T19:24:53.492Z,13.84
2022-09-22T19:27:24.712Z,13.79
2022-09-22T19:29:52.570Z,13.78
2022-09-22T19:32:20.024Z,13.72
2022-09-22T19:34:47.488Z,13.68
2022-09-22T19:37:16.202Z,13.63
2022-09-22T19:39:43.947Z,13.58
2022-09-22T19:42:11.478Z,13.55
2022-09-22T19:44:40.070Z,13.51
2022-09-22T19:47:07.688Z,13.46
2022-09-22T19:49:35.095Z,13.43
2022-09-22T19:52:02.554Z,13.40
2022-09-22T19:54:31.308Z,13.37
2022-09-22T19:56:59.094Z,13.36
2022-09-22T19:59:26.687Z,13.35
2022-09-22T20:01:54.939Z,13.31
2022-09-22T20:04:23.406Z,13.25
2022-09-22T20:06:50.856Z,13.21
2022-09-22T20:09:18.644Z,13.18
2022-09-22T20:11:49.030Z,13.15
2022-09-22T20:14:22.639Z,13.11
2022-09-22T20:16:51.743Z,13.07
2022-09-22T20:19:19.264Z,13.04
2022-09-22T20:21:47.042Z,13.04
2022-09-22T20:24:15.090Z,13.01
2022-09-22T20:26:42.800Z,12.97
2022-09-22T20:29:11.646Z,12.92
2022-09-22T20:31:39.155Z,12.90
2022-09-22T20:34:06.692Z,12.91
2022-09-22T20:36:36.853Z,12.89
2022-09-22T20:39:04.787Z,12.82
2022-09-22T20:41:32.474Z,12.81
2022-09-22T20:44:00.049Z,12.74
2022-09-22T20:46:28.876Z,12.73
2022-09-22T20:48:57.873Z,12.71
2022-09-22T20:51:25.571Z,12.69
2022-09-22T20:53:53.022Z,12.63
2022-09-22T20:56:20.420Z,12.64
2022-09-22T20:58:47.856Z,12.57
2022-09-22T21:01:16.909Z,12.56
2022-09-22T21:03:45.814Z,12.55
2022-09-22T21:06:13.592Z,12.52
2022-09-22T21:08:58.994Z,12.46
2022-09-22T21:11:27.784Z,12.47
2022-09-22T21:13:56.505Z,12.46
2022-09-22T21:16:23.924Z,12.43
2022-09-22T21:18:53.056Z,12.41
2022-09-22T21:21:20.995Z,12.41
2022-09-22T21:23:49.167Z,12.38
2022-09-22T21:26:17.467Z,12.34
2022-09-22T21:28:46.000Z,12.33
2022-09-22T21:31:14.657Z,12.31
2022-09-22T21:33:42.565Z,12.31
2022-09-22T21:36:12.537Z,11.75
2022-09-22T21:38:40.908Z,12.24
2022-09-22T21:41:09.297Z,12.21
2022-09-22T21:43:36.689Z,12.18
2022-09-22T21:46:05.709Z,12.13
2022-09-22T21:48:36.067Z,12.14
2022-09-22T21:51:05.407Z,12.11
2022-09-22T21:53:35.034Z,12.12
2022-09-22T21:56:03.448Z,12.09
2022-09-22T21:58:32.578Z,12.07
2022-09-22T22:01:01.063Z,12.04
2022-09-22T22:03:31.583Z,12.01
2022-09-22T22:06:02.865Z,12.01
2022-09-22T22:08:34.933Z,11.94
2022-09-22T22:11:07.531Z,11.96
2022-09-22T22:13:35.358Z,11.93
2022-09-22T22:16:03.379Z,11.93
2022-09-22T22:18:31.132Z,11.89
2022-09-22T22:21:02.355Z,11.85
2022-09-22T22:23:34.993Z,11.82
2022-09-22T22:26:04.899Z,11.79
2022-09-22T22:28:34.093Z,11.71
2022-09-22T22:31:02.961Z,11.73
2022-09-22T22:33:31.379Z,11.72
2022-09-22T22:35:58.937Z,11.67
2022-09-22T22:38:26.614Z,11.63
2022-09-22T22:40:54.001Z,11.63
2022-09-22T22:43:21.456Z,11.59
2022-09-22T22:45:50.232Z,11.59
2022-09-22T22:48:17.684Z,11.58
2022-09-22T22:50:45.135Z,11.52
2022-09-22T22:53:13.324Z,11.50
2022-09-22T22:55:42.267Z,11.47
2022-09-22T22:58:10.335Z,11.46
2022-09-22T23:00:39.226Z,11.45
2022-09-22T23:03:09.360Z,11.44
2022-09-22T23:05:42.261Z,11.43
2022-09-22T23:08:10.418Z,11.43
2022-09-22T23:10:37.827Z,11.42
2022-09-22T23:13:05.319Z,11.37
2022-09-22T23:15:33.084Z,11.38
2022-09-22T23:18:00.573Z,11.39
2022-09-22T23:20:29.428Z,11.40
2022-09-22T23:22:56.851Z,11.39
2022-09-22T23:25:24.315Z,11.35
2022-09-22T23:27:51.754Z,11.37
2022-09-22T23:30:19.187Z,11.36
2022-09-22T23:32:46.684Z,11.42
2022-09-22T23:35:14.121Z,11.38
2022-09-22T23:37:42.851Z,11.35
2022-09-22T23:40:11.113Z,11.36
2022-09-22T23:42:38.696Z,11.35
2022-09-22T23:45:06.629Z,11.32
2022-09-22T23:47:34.080Z,11.29
2022-09-22T23:50:01.474Z,11.29
2022-09-22T23:52:28.875Z,11.30
2022-09-22T23:54:57.798Z,11.27
2022-09-22T23:57:25.252Z,11.25
2022-09-22T23:59:52.669Z,11.22
